Cudjoe Key, Florida
Current Conditions -  °F | °C
As of 1:53 PM on Thursday 30 Oct 2014 (Local Time) from KNQX Reporting Station
Scattered Clouds Scattered Clouds  
Wind Chill: 83°   Ceiling: Unl
Heat Index: 85°   Visibility: 10mi
Dew Point: 65°   Wind: 6mph
Humidity: 54%   Direction: 120°ESE
Pressure: 29.93"   Gusts: NA
Location:  24.6465°N, 81.5399°W
Report Text: KNQX 301753Z 12005KT 10SM FEW040 SCT060 28/18 A2993 RMK AO2 SLP132 T02830183 10294 20244 58020 $
Loading
Personal Weather Stations






























Interactive Weather Map
Tropical Storm Tracking
New forecast layout! Learn more

10-Day Weather Forecast

Advertisements
Track Severe Weather on mobile